Time;durP1;ratioP1;P1;durP2;ratioP2;P2;SDS_P1;SDS_P2;PMS_P1;PMS_P2;Temp;Humidity;BMP_temperature;BMP_pressure;BME280_temperature;BME280_humidity;BME280_pressure;Samples;Min_cycle;Max_cycle;Signal;HPM_P1;HPM_P2
2019/08/13 00:01:23;;;;;;;10.9;9.9;;;;;;;15.84;100;962.6944;;;;
2019/08/13 00:05:49;;;;;;;11.2;10.1;;;;;;;15.84;100;962.5242;;;;
2019/08/13 00:08:36;;;;;;;10.8;9.7;;;;;;;15.86;100;962.5342;;;;
2019/08/13 00:10:53;;;;;;;11.1;9.9;;;;;;;15.82;100;962.6021;;;;
2019/08/13 00:13:40;;;;;;;11.6;10.5;;;;;;;15.88;100;962.4832;;;;
2019/08/13 00:15:30;;;;;;;12.2;10.9;;;;;;;15.88;100;962.4963;;;;
2019/08/13 00:18:01;;;;;;;10.9;9.9;;;;;;;15.89;100;962.536;;;;
2019/08/13 00:21:04;;;;;;;12.1;10.9;;;;;;;15.84;100;962.5076;;;;
2019/08/13 00:22:47;;;;;;;11.6;10.5;;;;;;;15.85;100;962.5398;;;;
2019/08/13 00:25:11;;;;;;;13.4;12;;;;;;;15.77;100;962.5783;;;;
2019/08/13 00:27:35;;;;;;;12.5;11.1;;;;;;;15.76;100;962.6701;;;;
2019/08/13 00:30:00;;;;;;;13.6;12.2;;;;;;;15.8;100;962.6614;;;;
2019/08/13 00:32:26;;;;;;;14;11.4;;;;;;;15.81;100;962.6869;;;;
2019/08/13 00:34:51;;;;;;;12.6;11.3;;;;;;;15.8;100;962.7098;;;;
2019/08/13 00:37:16;;;;;;;11.4;10.3;;;;;;;15.87;100;962.6196;;;;
2019/08/13 00:39:41;;;;;;;11.9;10.8;;;;;;;15.91;100;962.6715;;;;
2019/08/13 00:42:07;;;;;;;12.7;11.2;;;;;;;15.92;100;962.7062;;;;
2019/08/13 00:44:32;;;;;;;11.9;10.7;;;;;;;15.89;100;962.6749;;;;
2019/08/13 00:46:58;;;;;;;13.5;12.1;;;;;;;15.86;100;962.7578;;;;
2019/08/13 00:49:23;;;;;;;12.8;11.1;;;;;;;15.85;100;962.7403;;;;
2019/08/13 00:51:48;;;;;;;13.6;12.2;;;;;;;15.84;100;962.7148;;;;
2019/08/13 00:54:13;;;;;;;13.9;12.6;;;;;;;15.81;100;962.7313;;;;
2019/08/13 00:56:39;;;;;;;13.1;11.8;;;;;;;15.82;100;962.7517;;;;
2019/08/13 00:59:04;;;;;;;15.1;12.9;;;;;;;15.72;100;962.7827;;;;
2019/08/13 01:01:42;;;;;;;13.3;12;;;;;;;15.77;100;962.7501;;;;
2019/08/13 01:04:08;;;;;;;15.6;14;;;;;;;15.77;100;962.6892;;;;
2019/08/13 01:06:32;;;;;;;15.9;14.2;;;;;;;15.69;100;962.637;;;;
2019/08/13 01:08:57;;;;;;;12.3;11.1;;;;;;;15.86;100;962.6953;;;;
2019/08/13 01:11:23;;;;;;;14.5;13.1;;;;;;;15.75;100;962.6594;;;;
2019/08/13 01:13:47;;;;;;;14.5;13.1;;;;;;;15.68;100;962.6626;;;;
2019/08/13 01:16:12;;;;;;;14.3;12.8;;;;;;;15.74;100;962.6792;;;;
2019/08/13 01:18:37;;;;;;;15;13.4;;;;;;;15.59;100;962.6454;;;;
2019/08/13 01:21:02;;;;;;;16.6;14.9;;;;;;;15.62;100;962.6785;;;;
2019/08/13 01:23:27;;;;;;;15.8;14.3;;;;;;;15.58;100;962.6641;;;;
2019/08/13 01:25:52;;;;;;;14.3;12.9;;;;;;;15.65;100;962.6688;;;;
2019/08/13 01:28:17;;;;;;;14.8;13.3;;;;;;;15.66;100;962.6481;;;;
2019/08/13 01:30:49;;;;;;;14.7;13.2;;;;;;;15.62;100;962.6546;;;;
2019/08/13 01:33:21;;;;;;;15.4;13.7;;;;;;;15.63;100;962.68;;;;
2019/08/13 01:35:37;;;;;;;15.1;13.6;;;;;;;15.62;100;962.6398;;;;
2019/08/13 01:38:17;;;;;;;14.2;12.7;;;;;;;15.64;100;962.5822;;;;
2019/08/13 01:40:50;;;;;;;14;12.6;;;;;;;15.61;100;962.5939;;;;
2019/08/13 01:43:08;;;;;;;12.9;11.7;;;;;;;15.64;100;962.5974;;;;
2019/08/13 01:45:17;;;;;;;16.8;13.1;;;;;;;15.64;100;962.6027;;;;
2019/08/13 01:47:47;;;;;;;13.9;12.5;;;;;;;15.64;100;962.6545;;;;
2019/08/13 01:53:20;;;;;;;13.1;11.8;;;;;;;15.61;100;962.6519;;;;
2019/08/13 02:00:05;;;;;;;12.8;11.5;;;;;;;15.44;100;962.6588;;;;
2019/08/13 02:02:15;;;;;;;13.4;12;;;;;;;15.44;100;962.7203;;;;
2019/08/13 02:07:12;;;;;;;12.4;11.1;;;;;;;15.38;100;962.7537;;;;
2019/08/13 02:09:30;;;;;;;13.2;10.2;;;;;;;15.37;100;962.7214;;;;
2019/08/13 02:11:50;;;;;;;10.7;9.6;;;;;;;15.43;100;962.7258;;;;
2019/08/13 02:14:23;;;;;;;10.7;9.7;;;;;;;15.44;100;962.7063;;;;
2019/08/13 02:21:30;;;;;;;11.6;9;;;;;;;15.47;100;962.704;;;;
2019/08/13 02:28:58;;;;;;;10.9;9.7;;;;;;;15.44;100;962.7186;;;;
2019/08/13 02:31:11;;;;;;;10.3;8.6;;;;;;;15.43;100;962.7324;;;;
2019/08/13 02:33:48;;;;;;;9.4;8.4;;;;;;;15.41;100;962.6586;;;;
2019/08/13 02:36:01;;;;;;;7.6;6.5;;;;;;;15.42;100;962.6561;;;;
2019/08/13 02:38:26;;;;;;;6.9;6.2;;;;;;;15.22;100;962.6039;;;;
2019/08/13 02:40:51;;;;;;;8.4;6.8;;;;;;;15.23;100;962.5927;;;;
2019/08/13 02:43:16;;;;;;;8.6;6;;;;;;;15.28;100;962.5467;;;;
2019/08/13 02:45:41;;;;;;;6.9;5.9;;;;;;;15.27;100;962.5748;;;;
2019/08/13 02:48:06;;;;;;;7;5.4;;;;;;;15.23;99.55566;962.4933;;;;
2019/08/13 02:50:31;;;;;;;6.8;5.4;;;;;;;15.25;99.60645;962.485;;;;
2019/08/13 02:52:57;;;;;;;6.4;5;;;;;;;15.23;99.68359;962.4794;;;;
2019/08/13 02:55:22;;;;;;;6.2;4.7;;;;;;;15.28;97.74121;962.4564;;;;
2019/08/13 02:57:47;;;;;;;5;4.5;;;;;;;15.18;97.68457;962.5233;;;;
2019/08/13 03:00:13;;;;;;;6.1;4.9;;;;;;;15.18;100;962.5151;;;;
2019/08/13 03:02:37;;;;;;;6.5;4.7;;;;;;;15.18;99.20898;962.5364;;;;
2019/08/13 03:05:03;;;;;;;5.2;4.7;;;;;;;15.22;99.37012;962.5572;;;;
2019/08/13 03:07:28;;;;;;;6.2;4.3;;;;;;;15.22;99.75195;962.5078;;;;
2019/08/13 03:09:53;;;;;;;6;4.4;;;;;;;15.14;99.78223;962.5215;;;;
2019/08/13 03:12:18;;;;;;;5.5;4.7;;;;;;;15.11;100;962.5812;;;;
2019/08/13 03:14:43;;;;;;;5.8;4.5;;;;;;;15.11;99.83203;962.5706;;;;
2019/08/13 03:17:08;;;;;;;7.3;4.5;;;;;;;15.09;100;962.5589;;;;
2019/08/13 03:19:34;;;;;;;5.8;4.6;;;;;;;15.1;98.89746;962.5769;;;;
2019/08/13 03:21:59;;;;;;;5.4;4.6;;;;;;;15.02;98.55566;962.4953;;;;
2019/08/13 03:24:25;;;;;;;5.4;4.6;;;;;;;15.11;98.71387;962.5362;;;;
2019/08/13 03:26:50;;;;;;;6.6;4.7;;;;;;;15.08;100;962.5549;;;;
2019/08/13 03:29:15;;;;;;;5.6;4.9;;;;;;;15.04;99.30371;962.5478;;;;
2019/08/13 03:31:40;;;;;;;7.5;5.1;;;;;;;14.98;100;962.6139;;;;
2019/08/13 03:34:06;;;;;;;8;6.1;;;;;;;14.97;100;962.6328;;;;
2019/08/13 03:36:31;;;;;;;7.2;5.7;;;;;;;14.83;100;962.6514;;;;
2019/08/13 03:38:56;;;;;;;6.6;5.6;;;;;;;14.9;100;962.6259;;;;
2019/08/13 03:41:22;;;;;;;9.1;5.5;;;;;;;14.85;100;962.6648;;;;
2019/08/13 03:43:46;;;;;;;6.5;5.8;;;;;;;14.8;100;962.6808;;;;
2019/08/13 03:46:12;;;;;;;7.9;5.9;;;;;;;14.9;100;962.7211;;;;
2019/08/13 03:48:38;;;;;;;8.1;6.3;;;;;;;14.77;100;962.769;;;;
2019/08/13 03:51:02;;;;;;;8.2;5.6;;;;;;;14.84;100;962.765;;;;
2019/08/13 03:53:28;;;;;;;8.4;6.3;;;;;;;14.8;99.80664;962.7997;;;;
2019/08/13 03:55:53;;;;;;;7.8;6.1;;;;;;;14.89;100;962.8217;;;;
2019/08/13 03:58:18;;;;;;;9.8;5.7;;;;;;;14.81;100;962.8484;;;;
2019/08/13 04:02:28;;;;;;;6.9;6;;;;;;;14.86;99.6123;962.8855;;;;
2019/08/13 04:04:53;;;;;;;7.4;6.1;;;;;;;14.81;99.14844;962.9067;;;;
2019/08/13 04:07:18;;;;;;;7.1;6;;;;;;;14.86;99.07715;962.9364;;;;
2019/08/13 04:09:43;;;;;;;7.8;6.6;;;;;;;14.79;99.97656;962.9334;;;;
2019/08/13 04:12:08;;;;;;;7.1;6.4;;;;;;;14.77;99.91504;962.9366;;;;
2019/08/13 04:14:33;;;;;;;8;6.5;;;;;;;14.78;100;962.9299;;;;
2019/08/13 04:16:59;;;;;;;7.9;6.8;;;;;;;14.74;99.87402;962.9256;;;;
2019/08/13 04:19:23;;;;;;;8.9;7;;;;;;;14.74;100;962.9658;;;;
2019/08/13 04:21:48;;;;;;;10.4;7.5;;;;;;;14.65;100;962.9781;;;;
2019/08/13 04:24:13;;;;;;;8.6;7.1;;;;;;;14.77;100;963.0161;;;;
2019/08/13 04:26:38;;;;;;;8.1;6.8;;;;;;;14.75;99.89941;963.0314;;;;
2019/08/13 04:29:03;;;;;;;10.3;8.3;;;;;;;14.6;100;963.0338;;;;
2019/08/13 04:31:29;;;;;;;9.7;8.4;;;;;;;14.62;100;963.0353;;;;
2019/08/13 04:33:54;;;;;;;10;7.9;;;;;;;14.66;100;963.0474;;;;
2019/08/13 04:36:19;;;;;;;10.1;8;;;;;;;14.61;100;963.0444;;;;
2019/08/13 04:38:44;;;;;;;8.6;7.7;;;;;;;14.6;100;963.0632;;;;
2019/08/13 04:41:09;;;;;;;11.2;8.9;;;;;;;14.54;100;963.0709;;;;
2019/08/13 04:43:34;;;;;;;10.3;9.2;;;;;;;14.44;100;963.0784;;;;
2019/08/13 04:45:59;;;;;;;9.8;8.6;;;;;;;14.53;100;963.1305;;;;
2019/08/13 04:48:25;;;;;;;10.6;9.1;;;;;;;14.51;100;963.1649;;;;
2019/08/13 04:50:49;;;;;;;12.8;9.4;;;;;;;14.53;100;963.16;;;;
2019/08/13 04:53:14;;;;;;;8.7;7.2;;;;;;;14.68;100;963.2048;;;;
2019/08/13 04:55:40;;;;;;;10.6;8.6;;;;;;;14.61;100;963.1953;;;;
2019/08/13 04:58:05;;;;;;;12.9;9.2;;;;;;;14.5;100;963.2135;;;;
2019/08/13 05:00:30;;;;;;;11.3;9;;;;;;;14.65;100;963.2144;;;;
2019/08/13 05:02:55;;;;;;;8.9;7.9;;;;;;;14.75;100;963.2672;;;;
2019/08/13 05:05:20;;;;;;;11.6;8.7;;;;;;;14.68;100;963.2664;;;;
2019/08/13 05:07:45;;;;;;;10.5;8.3;;;;;;;14.78;100;963.2994;;;;
2019/08/13 05:10:11;;;;;;;9.4;8.2;;;;;;;14.73;100;963.2587;;;;
2019/08/13 05:12:36;;;;;;;10.4;8.8;;;;;;;14.72;100;963.2817;;;;
2019/08/13 05:15:01;;;;;;;10.9;9;;;;;;;14.74;100;963.2874;;;;
2019/08/13 05:17:26;;;;;;;9.2;8;;;;;;;14.77;100;963.3189;;;;
2019/08/13 05:19:51;;;;;;;10;8.4;;;;;;;14.92;100;963.3308;;;;
2019/08/13 05:22:16;;;;;;;11.2;8.7;;;;;;;14.88;100;963.2673;;;;
2019/08/13 05:24:41;;;;;;;9.1;8.2;;;;;;;15.01;100;963.3265;;;;
2019/08/13 05:27:07;;;;;;;9.5;8.3;;;;;;;14.99;99.57324;963.3488;;;;
2019/08/13 05:29:31;;;;;;;11.2;8.8;;;;;;;15;100;963.3348;;;;
2019/08/13 05:31:57;;;;;;;11.8;9.3;;;;;;;14.99;100;963.3398;;;;
2019/08/13 05:34:30;;;;;;;10.8;8.5;;;;;;;15.17;100;963.3575;;;;
2019/08/13 05:36:47;;;;;;;10.5;8.7;;;;;;;14.99;99.89844;963.3152;;;;
2019/08/13 05:39:22;;;;;;;11.6;8.5;;;;;;;15.21;99.08691;963.3323;;;;
2019/08/13 05:41:37;;;;;;;11.1;8.6;;;;;;;15.19;98.89648;963.3452;;;;
2019/08/13 05:44:02;;;;;;;10.1;9;;;;;;;15.11;99.99512;963.3398;;;;
2019/08/13 05:46:27;;;;;;;11;8.6;;;;;;;15.21;100;963.4012;;;;
2019/08/13 05:48:52;;;;;;;9.5;8.5;;;;;;;15.27;99.82422;963.3959;;;;
2019/08/13 05:51:17;;;;;;;9.5;8.5;;;;;;;15.26;99.08691;963.4207;;;;
2019/08/13 05:53:42;;;;;;;11.2;8;;;;;;;15.37;98.33203;963.4138;;;;
2019/08/13 05:58:32;;;;;;;9;7.4;;;;;;;15.48;97.83398;963.4203;;;;
2019/08/13 06:00:59;;;;;;;11;7.5;;;;;;;15.61;96.47656;963.4796;;;;
2019/08/13 06:03:22;;;;;;;10.1;7.5;;;;;;;15.54;99.0459;963.502;;;;
2019/08/13 06:05:47;;;;;;;8.3;7.1;;;;;;;15.49;97.77637;963.4827;;;;
2019/08/13 06:08:13;;;;;;;10.1;7.3;;;;;;;15.63;96.91113;963.537;;;;
2019/08/13 06:10:38;;;;;;;8.9;6.2;;;;;;;15.89;93.88184;963.5717;;;;
2019/08/13 06:13:04;;;;;;;11.1;6.8;;;;;;;15.73;95.73535;963.6145;;;;
2019/08/13 06:15:29;;;;;;;9.4;6.5;;;;;;;15.77;95.81348;963.6344;;;;
2019/08/13 06:17:55;;;;;;;7.9;6.8;;;;;;;15.67;96.08105;963.6703;;;;
2019/08/13 06:20:19;;;;;;;10.2;6.3;;;;;;;15.72;96.03418;963.671;;;;
2019/08/13 06:22:44;;;;;;;8.1;5.9;;;;;;;15.76;94.50488;963.7097;;;;
2019/08/13 06:25:11;;;;;;;9;6.3;;;;;;;15.85;95.77246;963.743;;;;
2019/08/13 06:27:36;;;;;;;7.9;6.1;;;;;;;15.97;94.26172;963.7571;;;;
2019/08/13 06:30:01;;;;;;;6.4;5.1;;;;;;;16.13;92.88477;963.7988;;;;
2019/08/13 06:32:26;;;;;;;8.8;5.2;;;;;;;16.17;96.07422;963.8779;;;;
2019/08/13 06:34:51;;;;;;;6.4;4.5;;;;;;;16.27;93.08789;963.8848;;;;
2019/08/13 06:37:16;;;;;;;6.8;4.9;;;;;;;16.4;91.62305;963.9528;;;;
2019/08/13 06:39:41;;;;;;;5.8;4.5;;;;;;;16.3;89.25684;963.8881;;;;
2019/08/13 06:42:06;;;;;;;6.9;4.7;;;;;;;16.42;89.58594;963.9684;;;;
2019/08/13 06:44:31;;;;;;;7.2;4.8;;;;;;;16.48;91.61719;963.9211;;;;
2019/08/13 06:46:57;;;;;;;8.1;4.8;;;;;;;16.36;89.57324;964.0109;;;;
2019/08/13 06:49:22;;;;;;;7.9;4.9;;;;;;;16.39;91.24609;964.0045;;;;
2019/08/13 06:51:47;;;;;;;6.1;5;;;;;;;16.43;91.40723;963.9537;;;;
2019/08/13 06:54:12;;;;;;;6.2;4.8;;;;;;;16.52;89.07129;964.0002;;;;
2019/08/13 06:56:37;;;;;;;7.1;5;;;;;;;16.56;89.69629;963.9664;;;;
2019/08/13 06:59:02;;;;;;;6.6;4.8;;;;;;;16.64;89.43164;963.9239;;;;
2019/08/13 07:01:27;;;;;;;6.5;4.9;;;;;;;16.63;90.48145;963.9665;;;;
2019/08/13 07:03:52;;;;;;;6.3;4.7;;;;;;;16.6;88.8291;963.9656;;;;
2019/08/13 07:06:19;;;;;;;7.6;5;;;;;;;16.47;88.74512;963.9727;;;;
2019/08/13 07:08:43;;;;;;;6.5;4.2;;;;;;;16.61;87.47656;963.9675;;;;
2019/08/13 07:11:08;;;;;;;6.8;4.5;;;;;;;16.62;88.12012;963.9295;;;;
2019/08/13 07:13:33;;;;;;;5.7;4;;;;;;;16.73;88.41211;963.976;;;;
2019/08/13 07:15:58;;;;;;;6.6;4.5;;;;;;;16.75;87.58887;964.0025;;;;
2019/08/13 07:18:23;;;;;;;6.2;3.9;;;;;;;17;85.98828;963.9743;;;;
2019/08/13 07:20:50;;;;;;;4.6;3.7;;;;;;;17.03;85.06152;963.962;;;;
2019/08/13 07:23:14;;;;;;;5.9;3.8;;;;;;;17.08;85.24512;963.9609;;;;
2019/08/13 07:25:39;;;;;;;6.4;3.4;;;;;;;17.03;84.10352;963.9891;;;;
2019/08/13 07:28:05;;;;;;;5.8;3.4;;;;;;;17.17;84.01172;964.0566;;;;
2019/08/13 07:30:31;;;;;;;6.4;3.6;;;;;;;17;83.88574;964.0492;;;;
2019/08/13 07:32:55;;;;;;;5.6;3.6;;;;;;;16.89;85.04688;964.0572;;;;
2019/08/13 07:35:21;;;;;;;5.7;3.4;;;;;;;16.77;85.6416;964.0669;;;;
2019/08/13 07:37:46;;;;;;;4.9;3.2;;;;;;;16.98;85.3916;964.0351;;;;
2019/08/13 07:40:12;;;;;;;4.8;3.1;;;;;;;16.98;86.7793;964.0062;;;;
2019/08/13 07:42:37;;;;;;;4.3;2.7;;;;;;;16.98;85.94043;964.0351;;;;
2019/08/13 07:45:02;;;;;;;5.2;2.7;;;;;;;17.01;82.39453;964.0681;;;;
2019/08/13 07:47:27;;;;;;;4.6;2.8;;;;;;;17.03;83.25098;964.0303;;;;
2019/08/13 07:49:53;;;;;;;4.5;2.6;;;;;;;17.25;81.56348;964.0369;;;;
2019/08/13 07:52:18;;;;;;;5.5;3;;;;;;;17.28;79.55762;964.0179;;;;
2019/08/13 07:54:43;;;;;;;4.1;2.7;;;;;;;17.25;81.11914;963.9858;;;;
2019/08/13 07:57:08;;;;;;;4.9;2.3;;;;;;;17.31;79.3877;963.9866;;;;
2019/08/13 07:59:34;;;;;;;4.2;2.3;;;;;;;17.26;79.56641;964.0203;;;;
2019/08/13 08:01:59;;;;;;;3.5;2;;;;;;;17.38;77.60059;963.9668;;;;
2019/08/13 08:04:24;;;;;;;3.4;2.1;;;;;;;17.48;79.57031;963.995;;;;
2019/08/13 08:06:49;;;;;;;5.5;2.9;;;;;;;17.49;79.38477;963.9883;;;;
2019/08/13 08:09:17;;;;;;;5.8;2.6;;;;;;;17.55;79.66699;963.9725;;;;
2019/08/13 08:11:39;;;;;;;5.3;2.3;;;;;;;17.58;76.15137;963.9774;;;;
2019/08/13 08:14:14;;;;;;;4.9;2.4;;;;;;;17.67;75.60547;963.9254;;;;
2019/08/13 08:17:22;;;;;;;4;2.3;;;;;;;17.64;79.35547;963.927;;;;
2019/08/13 08:19:00;;;;;;;4.7;2.3;;;;;;;17.89;76.4043;963.9699;;;;
2019/08/13 08:21:20;;;;;;;4;2.3;;;;;;;17.99;76.17383;963.9811;;;;
2019/08/13 08:23:46;;;;;;;4.3;2.4;;;;;;;17.99;73.97363;963.9482;;;;
2019/08/13 08:26:11;;;;;;;4.1;2.5;;;;;;;18.13;76.17578;963.9726;;;;
2019/08/13 08:28:36;;;;;;;4.7;1.9;;;;;;;18.17;74.30762;963.9559;;;;
2019/08/13 08:31:01;;;;;;;4.4;2.1;;;;;;;18.36;72.30078;963.9542;;;;
2019/08/13 08:33:28;;;;;;;2.9;1.5;;;;;;;18.34;71.63184;963.9626;;;;
2019/08/13 08:35:52;;;;;;;2.9;1.6;;;;;;;18.14;72.20703;963.9847;;;;
2019/08/13 08:38:17;;;;;;;3.7;1.8;;;;;;;18.27;70.54297;963.9397;;;;
2019/08/13 08:40:42;;;;;;;5;1.7;;;;;;;18.1;70.44531;963.9752;;;;
2019/08/13 08:43:07;;;;;;;4.6;1.8;;;;;;;18.21;70.71973;964.0257;;;;
2019/08/13 08:45:33;;;;;;;3.3;1.7;;;;;;;18.33;70.86914;964.0128;;;;
2019/08/13 08:47:58;;;;;;;3.1;1.8;;;;;;;18.39;70.24512;964.0283;;;;
2019/08/13 08:50:23;;;;;;;4.4;1.6;;;;;;;18.43;69.4668;963.9722;;;;
2019/08/13 08:52:48;;;;;;;3.2;1.7;;;;;;;18.54;69.97656;963.9978;;;;
2019/08/13 08:55:13;;;;;;;5.2;1.9;;;;;;;18.31;69.57715;964.0065;;;;
2019/08/13 08:57:38;;;;;;;3.3;1.7;;;;;;;18.55;71.69922;963.9684;;;;
2019/08/13 09:00:04;;;;;;;4.3;1.7;;;;;;;18.57;71.91406;963.954;;;;
2019/08/13 09:02:29;;;;;;;3.1;1.8;;;;;;;18.56;70.27246;963.9657;;;;
2019/08/13 09:04:54;;;;;;;4.8;1.9;;;;;;;18.48;72.49805;964.0543;;;;
2019/08/13 09:07:20;;;;;;;5.1;2.3;;;;;;;18.57;71.38574;963.9895;;;;
2019/08/13 09:09:45;;;;;;;4.2;2.1;;;;;;;18.6;71.5791;963.9398;;;;
2019/08/13 09:12:10;;;;;;;4.7;2.1;;;;;;;18.6;71.73242;963.877;;;;
2019/08/13 09:14:35;;;;;;;4.5;2.1;;;;;;;18.57;73.15723;963.9705;;;;
2019/08/13 09:17:00;;;;;;;6;2.3;;;;;;;18.69;72.62695;964.0045;;;;
2019/08/13 09:19:25;;;;;;;4;1.9;;;;;;;18.83;72.21387;963.9745;;;;
2019/08/13 09:21:50;;;;;;;7.2;2.2;;;;;;;18.82;71.69727;963.9556;;;;
2019/08/13 09:24:16;;;;;;;4.9;2.1;;;;;;;18.58;72.4082;963.9138;;;;
2019/08/13 09:26:41;;;;;;;4.3;2.3;;;;;;;18.83;71.54492;963.8373;;;;
2019/08/13 09:29:07;;;;;;;4.7;2.3;;;;;;;18.9;71.34668;963.9069;;;;
2019/08/13 09:31:32;;;;;;;4.5;1.8;;;;;;;18.96;69.36133;963.9017;;;;
2019/08/13 09:33:57;;;;;;;3.8;1.6;;;;;;;19.26;66.49902;963.9208;;;;
2019/08/13 09:36:22;;;;;;;3.6;2;;;;;;;19.03;68.50391;963.908;;;;
2019/08/13 09:38:48;;;;;;;5.5;2.2;;;;;;;18.93;69.82617;963.8761;;;;
2019/08/13 09:41:14;;;;;;;4.5;2.2;;;;;;;19.12;69.2002;963.8312;;;;
2019/08/13 09:43:38;;;;;;;3.4;1.8;;;;;;;19.34;68.63477;963.8318;;;;
2019/08/13 09:46:03;;;;;;;5.3;1.8;;;;;;;19.46;67.14941;963.7755;;;;
2019/08/13 09:48:29;;;;;;;3;1.7;;;;;;;19.52;67.50098;963.7261;;;;
2019/08/13 09:50:53;;;;;;;5.5;1.9;;;;;;;19.56;67.96484;963.704;;;;
2019/08/13 09:53:19;;;;;;;4.2;1.7;;;;;;;19.42;70.80859;963.6891;;;;
2019/08/13 09:55:44;;;;;;;3.8;1.9;;;;;;;19.37;67.17285;963.6571;;;;
2019/08/13 09:58:09;;;;;;;4.3;1.7;;;;;;;19.49;65.20508;963.6362;;;;
2019/08/13 10:00:34;;;;;;;4.1;1.7;;;;;;;19.26;66.36914;963.6211;;;;
2019/08/13 10:02:59;;;;;;;4.7;1.7;;;;;;;19.43;65.58301;963.6103;;;;
2019/08/13 10:05:24;;;;;;;4;1.9;;;;;;;19.38;65.70605;963.568;;;;
2019/08/13 10:07:50;;;;;;;4.4;1.7;;;;;;;19.29;65.5625;963.5701;;;;
2019/08/13 10:10:15;;;;;;;4.4;1.7;;;;;;;19.36;65.94824;963.5945;;;;
2019/08/13 10:12:40;;;;;;;3.6;1.7;;;;;;;19.58;64.11426;963.5278;;;;
2019/08/13 10:15:06;;;;;;;2.3;1.5;;;;;;;19.47;64.36719;963.5206;;;;
2019/08/13 10:17:31;;;;;;;4.7;1.8;;;;;;;19.55;65.83594;963.5804;;;;
2019/08/13 10:19:56;;;;;;;3.7;1.6;;;;;;;19.65;66.19238;963.5103;;;;
2019/08/13 10:22:21;;;;;;;4.2;1.5;;;;;;;19.98;63.27734;963.5016;;;;
2019/08/13 10:24:46;;;;;;;3.8;1.3;;;;;;;19.63;61.25293;963.4597;;;;
2019/08/13 10:27:12;;;;;;;3;1.4;;;;;;;19.71;65.16602;963.5342;;;;
2019/08/13 10:29:37;;;;;;;3.6;1.8;;;;;;;19.83;64.65625;963.5714;;;;
2019/08/13 10:32:03;;;;;;;2.8;1.4;;;;;;;19.91;62.8457;963.5388;;;;
2019/08/13 10:34:28;;;;;;;4.1;1.7;;;;;;;20;63.30469;963.5237;;;;
2019/08/13 10:36:53;;;;;;;3.7;1.3;;;;;;;19.91;62.85742;963.4561;;;;
2019/08/13 10:39:18;;;;;;;3.9;1.6;;;;;;;20.17;62.11719;963.5011;;;;
2019/08/13 10:41:43;;;;;;;3.3;1.5;;;;;;;20.23;60.52637;963.4913;;;;
2019/08/13 10:44:09;;;;;;;3.1;1.5;;;;;;;20.04;59.72363;963.4556;;;;
2019/08/13 10:46:35;;;;;;;2;1.2;;;;;;;20.09;58.27148;963.3961;;;;
2019/08/13 10:48:59;;;;;;;2.5;1.3;;;;;;;20.24;59.53906;963.4413;;;;
2019/08/13 10:51:25;;;;;;;3.5;1.3;;;;;;;20.1;59.20215;963.4639;;;;
2019/08/13 10:53:50;;;;;;;2.9;1.3;;;;;;;20.11;59.28418;963.483;;;;
2019/08/13 10:56:15;;;;;;;2.7;1.4;;;;;;;19.71;59.43164;963.4938;;;;
2019/08/13 10:58:40;;;;;;;2.9;1.3;;;;;;;19.52;61.60352;963.4233;;;;
2019/08/13 11:01:05;;;;;;;2.9;1.5;;;;;;;19.36;62.87305;963.4069;;;;
2019/08/13 11:03:30;;;;;;;2;1.2;;;;;;;19.61;61.82813;963.4796;;;;
2019/08/13 11:05:56;;;;;;;3.9;1.6;;;;;;;19.69;64.83594;963.5363;;;;
2019/08/13 11:08:22;;;;;;;4.4;1.6;;;;;;;19.23;66.98633;963.5385;;;;
2019/08/13 11:10:46;;;;;;;3;1.7;;;;;;;18.87;66.49805;963.6047;;;;
2019/08/13 11:13:12;;;;;;;3.6;1.6;;;;;;;18.83;66.9834;963.6085;;;;
2019/08/13 11:15:37;;;;;;;3.6;1.3;;;;;;;18.76;65.44824;963.6429;;;;
2019/08/13 11:18:02;;;;;;;3.8;1.7;;;;;;;18.79;66.46191;963.6006;;;;
2019/08/13 11:20:27;;;;;;;3.2;1.4;;;;;;;19;65.98926;963.5554;;;;
2019/08/13 11:22:52;;;;;;;4.5;1.4;;;;;;;19.01;65.37988;963.5808;;;;
2019/08/13 11:25:17;;;;;;;4.3;1.6;;;;;;;19.09;66.45996;963.567;;;;
2019/08/13 11:27:43;;;;;;;2.7;1.4;;;;;;;19.11;63.95117;963.5873;;;;
2019/08/13 11:30:08;;;;;;;2.8;1.5;;;;;;;18.8;66.08691;963.4915;;;;
2019/08/13 11:32:33;;;;;;;4.7;1.5;;;;;;;18.75;66.00977;963.5436;;;;
2019/08/13 11:34:58;;;;;;;2.9;1.4;;;;;;;18.8;67.44727;963.475;;;;
2019/08/13 11:37:23;;;;;;;2.9;1.4;;;;;;;19.05;66.72461;963.4532;;;;
2019/08/13 11:39:48;;;;;;;3.5;1.4;;;;;;;19.02;64.84277;963.4789;;;;
2019/08/13 11:42:14;;;;;;;3.1;1.4;;;;;;;19.29;64.12988;963.4578;;;;
2019/08/13 11:44:39;;;;;;;3;1.4;;;;;;;19.42;63.72656;963.4643;;;;
2019/08/13 11:47:04;;;;;;;1.7;1.1;;;;;;;19.36;61.5332;963.4227;;;;
2019/08/13 11:49:29;;;;;;;1.8;1;;;;;;;19.47;58.88281;963.3844;;;;
2019/08/13 11:51:54;;;;;;;1.6;1.1;;;;;;;19.61;57.30273;963.2647;;;;
2019/08/13 11:54:19;;;;;;;2.7;1.1;;;;;;;19.69;56.4541;963.261;;;;
2019/08/13 11:56:45;;;;;;;2.6;1.1;;;;;;;19.84;56.53418;963.2575;;;;
2019/08/13 11:59:10;;;;;;;2;1.2;;;;;;;19.99;56.11816;963.2766;;;;
2019/08/13 12:01:35;;;;;;;2.9;1.1;;;;;;;20.14;56.59668;963.2432;;;;
2019/08/13 12:04:00;;;;;;;2.2;1;;;;;;;20.13;58.08887;963.2798;;;;
2019/08/13 12:06:25;;;;;;;3.1;1.2;;;;;;;20.2;56.43848;963.2326;;;;
2019/08/13 12:08:50;;;;;;;2.8;1.1;;;;;;;20.18;55.20117;963.2756;;;;
2019/08/13 12:11:15;;;;;;;3;1.2;;;;;;;19.99;56.2832;963.2219;;;;
2019/08/13 12:13:40;;;;;;;2.3;1.1;;;;;;;19.83;56.4043;963.1849;;;;
2019/08/13 12:16:07;;;;;;;2.5;1.2;;;;;;;19.57;57.3457;963.2487;;;;
2019/08/13 12:18:30;;;;;;;3.7;1.2;;;;;;;19.9;56.96484;963.2437;;;;
2019/08/13 12:20:55;;;;;;;1.7;1;;;;;;;19.89;55.82227;963.2371;;;;
2019/08/13 12:23:21;;;;;;;2;1.1;;;;;;;19.88;56.99707;963.253;;;;
2019/08/13 12:25:45;;;;;;;2.9;1.2;;;;;;;20.25;56.98633;963.2659;;;;
2019/08/13 12:28:11;;;;;;;2.6;1.1;;;;;;;20.37;55.03613;963.2131;;;;
2019/08/13 12:30:36;;;;;;;3.4;1.1;;;;;;;20.5;55.19434;963.2095;;;;
2019/08/13 12:33:01;;;;;;;3.2;1.1;;;;;;;20.61;53.85254;963.1469;;;;
2019/08/13 12:35:26;;;;;;;2.4;0.9;;;;;;;20.71;52.25293;963.1272;;;;
2019/08/13 12:37:51;;;;;;;1.5;0.9;;;;;;;20.66;52.29199;963.1637;;;;
2019/08/13 12:40:16;;;;;;;2.1;1.1;;;;;;;20.53;53.82031;963.1348;;;;
2019/08/13 12:42:42;;;;;;;3.6;1.1;;;;;;;20.41;55.55859;963.1305;;;;
2019/08/13 12:45:07;;;;;;;2.2;1.1;;;;;;;20.5;54.05176;963.0878;;;;
2019/08/13 12:47:32;;;;;;;2.1;0.9;;;;;;;20.36;56.84766;963.0598;;;;
2019/08/13 12:49:57;;;;;;;1.9;1.1;;;;;;;20.32;56.28906;963.0978;;;;
2019/08/13 12:52:23;;;;;;;1.6;1;;;;;;;20.42;56.71289;963.0385;;;;
2019/08/13 12:54:48;;;;;;;2.5;1.1;;;;;;;20.38;57.68555;963.0374;;;;
2019/08/13 12:57:13;;;;;;;2.3;1.1;;;;;;;20.41;57.10156;962.9432;;;;
2019/08/13 12:59:39;;;;;;;2.2;1.2;;;;;;;20.4;57.05371;962.9385;;;;
2019/08/13 13:02:04;;;;;;;2.8;1.3;;;;;;;20.54;55.44629;962.9002;;;;
2019/08/13 13:04:29;;;;;;;2;1.1;;;;;;;20.26;54.5166;962.8832;;;;
2019/08/13 13:06:54;;;;;;;2.8;1.1;;;;;;;20.47;54.43652;962.7728;;;;
2019/08/13 13:09:19;;;;;;;2.3;1.1;;;;;;;20.24;56.2666;962.7619;;;;
2019/08/13 13:11:44;;;;;;;3.9;1.4;;;;;;;19.99;57.41211;962.7643;;;;
2019/08/13 13:14:10;;;;;;;2.6;1.1;;;;;;;19.88;58.08008;962.7954;;;;
2019/08/13 13:16:35;;;;;;;3.7;1.2;;;;;;;19.55;57.98926;962.7708;;;;
2019/08/13 13:19:00;;;;;;;3.8;1.5;;;;;;;19.39;58.89551;962.8148;;;;
2019/08/13 13:21:26;;;;;;;2.8;1.1;;;;;;;19.31;60.21094;962.8156;;;;
2019/08/13 13:23:51;;;;;;;3;1.4;;;;;;;18.88;61.77148;962.7145;;;;
2019/08/13 13:26:16;;;;;;;4.4;1.5;;;;;;;18.99;61.74023;962.7283;;;;
2019/08/13 13:28:41;;;;;;;3.2;1.2;;;;;;;18.75;62.69141;962.7534;;;;
2019/08/13 13:31:08;;;;;;;2.3;1.2;;;;;;;18.56;62.78125;962.6736;;;;
2019/08/13 13:33:32;;;;;;;2;1.1;;;;;;;18.86;63.34082;962.6758;;;;
2019/08/13 13:35:57;;;;;;;2.9;1.2;;;;;;;19.03;61.88574;962.7322;;;;
2019/08/13 13:38:22;;;;;;;3.8;1.3;;;;;;;19.27;59.29004;962.582;;;;
2019/08/13 13:40:47;;;;;;;2.4;1.1;;;;;;;19.29;58.78711;962.6031;;;;
2019/08/13 13:43:12;;;;;;;2.7;1.1;;;;;;;19.56;59.59863;962.5664;;;;
2019/08/13 13:45:38;;;;;;;2.4;1.2;;;;;;;19.65;60.56348;962.5276;;;;
2019/08/13 13:48:03;;;;;;;1.3;0.9;;;;;;;19.44;56.78809;962.5405;;;;
2019/08/13 13:50:28;;;;;;;2.7;0.9;;;;;;;19.8;58.67969;962.5349;;;;
2019/08/13 13:52:53;;;;;;;2.2;1.1;;;;;;;19.93;55.93359;962.4641;;;;
2019/08/13 13:55:18;;;;;;;2.1;1;;;;;;;19.85;56.25293;962.4922;;;;
2019/08/13 13:57:43;;;;;;;1.8;1;;;;;;;19.82;53.45117;962.5108;;;;
2019/08/13 14:00:10;;;;;;;2.1;1;;;;;;;19.6;57.75977;962.4537;;;;
2019/08/13 14:02:34;;;;;;;2.4;1;;;;;;;19.95;56.45508;962.443;;;;
2019/08/13 14:04:59;;;;;;;1.9;1;;;;;;;19.78;55.11523;962.5379;;;;
2019/08/13 14:07:25;;;;;;;2.7;1;;;;;;;19.65;55.58105;962.4899;;;;
2019/08/13 14:09:50;;;;;;;3.2;1.3;;;;;;;19.65;54.08887;962.5201;;;;
2019/08/13 14:12:15;;;;;;;2.6;1;;;;;;;19.91;55.1084;962.4922;;;;
2019/08/13 14:14:40;;;;;;;2.4;1.1;;;;;;;19.93;54.3584;962.5128;;;;
2019/08/13 14:17:05;;;;;;;3.3;1.2;;;;;;;19.96;55.08008;962.5595;;;;
2019/08/13 14:19:30;;;;;;;3.4;1.1;;;;;;;19.84;53.59473;962.4849;;;;
2019/08/13 14:21:55;;;;;;;3.8;1.1;;;;;;;19.92;54.56738;962.4689;;;;
2019/08/13 14:24:20;;;;;;;2.3;1.2;;;;;;;20.22;53.45215;962.4392;;;;
2019/08/13 14:26:47;;;;;;;2.4;1.1;;;;;;;20.03;54.78223;962.3947;;;;
2019/08/13 14:29:12;;;;;;;3.2;1.1;;;;;;;19.81;54.73145;962.3878;;;;
2019/08/13 14:31:36;;;;;;;2.8;0.9;;;;;;;19.82;54.9209;962.3245;;;;
2019/08/13 14:34:02;;;;;;;2.5;1.1;;;;;;;19.99;54.03711;962.32;;;;
2019/08/13 14:36:28;;;;;;;3;1.2;;;;;;;19.77;55.15039;962.2939;;;;
2019/08/13 14:38:52;;;;;;;3.1;1.1;;;;;;;19.67;55.57129;962.2803;;;;
2019/08/13 14:41:17;;;;;;;3.2;1.1;;;;;;;19.62;54.29688;962.2183;;;;
2019/08/13 14:43:42;;;;;;;1.8;1.1;;;;;;;19.69;55.9502;962.1866;;;;
2019/08/13 14:46:07;;;;;;;2.6;1.1;;;;;;;19.51;54.51758;962.2314;;;;
2019/08/13 14:48:33;;;;;;;2.4;1.1;;;;;;;19.66;54.85352;962.1638;;;;
2019/08/13 14:50:58;;;;;;;3;1;;;;;;;19.77;54.6543;962.2169;;;;
2019/08/13 14:53:24;;;;;;;2.3;1.1;;;;;;;19.54;58.05762;962.1758;;;;